Terminal Aerodrome Forecast
Issued by NWS Charleston, SC

Home | Current Version | Previous Version | Text Only | Print | Product List | Glossary On
Versions: 1 2 3 4 5 6 7 8 9 10 11 12 13 14 15 16 17 18
000
FTUS42 KCHS 281827 AAA
TAFCHS
TAF AMD
KCHS 281827Z 2818/0118 04012KT P6SM BKN030
     FM010000 03014G20KT P6SM VCSH SCT015 BKN025
     FM010700 03013G18KT P6SM VCSH SCT007 OVC012
     FM011300 03010KT 6SM -RA BR BKN006 OVC010=

USA.gov is the U.S. government's official web portal to all federal, state and local government web resources and services.